Time;durP1;ratioP1;P1;durP2;ratioP2;P2;SDS_P1;SDS_P2;PMS_P1;PMS_P2;Temp;Humidity;BMP_temperature;BMP_pressure;BME280_temperature;BME280_humidity;BME280_pressure;Samples;Min_cycle;Max_cycle;Signal;HPM_P1;HPM_P2
2022/09/29 00:01:15;;;;;;;15.32;8.63;;;;;;;10.45;50.48;100048.88;7390105;19;20014;-56
2022/09/29 00:03:41;;;;;;;16.38;8.80;;;;;;;10.38;50.45;100042.13;7389878;19;20002;-56
2022/09/29 00:06:15;;;;;;;16.63;8.90;;;;;;;10.54;50.48;100052.19;7390372;19;20002;-56
2022/09/29 00:08:41;;;;;;;16.98;8.63;;;;;;;10.57;50.19;100048.75;7389809;19;19998;-56
2022/09/29 00:11:08;;;;;;;17.40;8.80;;;;;;;10.31;50.85;100044.69;7390075;19;20300;-56
2022/09/29 00:13:34;;;;;;;17.85;8.98;;;;;;;10.25;50.74;100046.16;7391701;19;20003;-56
2022/09/29 00:16:02;;;;;;;14.88;8.77;;;;;;;10.25;50.71;100045.34;7391629;19;20036;-56
2022/09/29 00:18:29;;;;;;;16.95;9.80;;;;;;;10.23;50.82;100039.44;7389156;19;20003;-56
2022/09/29 00:21:12;;;;;;;16.70;9.13;;;;;;;10.30;50.47;100040.41;7390758;19;20014;-57
2022/09/29 00:23:38;;;;;;;15.27;9.23;;;;;;;10.34;50.22;100032.28;7391445;19;20026;-57
2022/09/29 00:26:10;;;;;;;18.17;10.02;;;;;;;10.25;50.40;100037.16;7364336;19;19999;-57
2022/09/29 00:28:37;;;;;;;16.85;9.13;;;;;;;10.31;50.42;100033.78;7391413;19;20035;-57
2022/09/29 00:31:05;;;;;;;16.55;9.10;;;;;;;10.28;50.48;100037.22;7389661;19;20002;-57
2022/09/29 00:33:32;;;;;;;18.60;9.45;;;;;;;10.31;50.32;100036.50;7391250;19;20006;-57
2022/09/29 00:36:00;;;;;;;16.55;9.02;;;;;;;10.25;50.32;100035.22;7396650;19;20026;-57
2022/09/29 00:38:27;;;;;;;17.20;9.60;;;;;;;10.06;50.71;100029.75;7399213;19;20002;-57
2022/09/29 00:40:53;;;;;;;17.38;8.77;;;;;;;10.15;50.72;100038.50;7396843;19;20010;-57
2022/09/29 00:43:22;;;;;;;15.18;8.65;;;;;;;10.03;50.83;100038.63;7396543;19;20451;-57
2022/09/29 00:45:51;;;;;;;16.83;8.85;;;;;;;10.03;50.93;100028.50;7395976;19;20003;-56
2022/09/29 00:48:28;;;;;;;16.55;9.18;;;;;;;10.07;50.84;100034.84;7398795;19;20003;-57
2022/09/29 00:50:55;;;;;;;15.98;9.48;;;;;;;9.93;51.34;100029.84;7395864;19;20026;-57
2022/09/29 00:53:23;;;;;;;17.00;8.88;;;;;;;9.99;50.78;100024.94;7396396;19;19999;-57
2022/09/29 00:55:54;;;;;;;14.73;8.70;;;;;;;9.86;51.14;100024.25;7397379;19;19997;-56
2022/09/29 00:58:34;;;;;;;18.80;9.15;;;;;;;9.85;51.02;100021.88;7399379;19;19995;-57
2022/09/29 01:00:59;;;;;;;15.80;8.95;;;;;;;9.87;50.80;100028.56;7395331;19;20073;-57
2022/09/29 01:03:29;;;;;;;16.15;9.68;;;;;;;9.84;51.31;100025.75;7397542;19;20003;-56
2022/09/29 01:06:09;;;;;;;14.20;9.10;;;;;;;9.92;51.00;100030.22;7397159;19;20003;-56
2022/09/29 01:08:50;;;;;;;18.20;9.45;;;;;;;9.73;51.25;100039.91;7395835;19;20003;-56
2022/09/29 01:11:19;;;;;;;16.70;9.52;;;;;;;9.85;51.10;100032.78;7394681;19;20022;-57
2022/09/29 01:13:46;;;;;;;17.65;9.65;;;;;;;9.92;50.75;100035.69;7398094;19;20026;-56
2022/09/29 01:16:11;;;;;;;17.80;9.02;;;;;;;9.96;50.88;100034.59;7394330;19;20480;-57
2022/09/29 01:18:37;;;;;;;15.13;9.00;;;;;;;9.81;51.10;100035.44;7394808;19;20007;-57
2022/09/29 01:21:44;;;;;;;16.08;8.93;;;;;;;9.76;51.24;100038.44;7394970;19;20027;-57
2022/09/29 01:24:19;;;;;;;20.50;9.95;;;;;;;9.90;50.90;100043.41;7395517;19;20002;-57
2022/09/29 01:27:06;;;;;;;19.23;10.20;;;;;;;9.89;50.97;100033.66;7394895;19;20005;-57
2022/09/29 01:29:52;;;;;;;16.17;9.60;;;;;;;9.73;51.36;100041.84;7396920;19;20002;-57
2022/09/29 01:32:55;;;;;;;18.98;9.85;;;;;;;9.79;51.19;100045.91;7393125;19;20466;-57
2022/09/29 01:35:36;;;;;;;18.33;10.68;;;;;;;9.72;51.29;100046.53;7395645;19;20002;-57
2022/09/29 01:38:29;;;;;;;19.35;10.60;;;;;;;9.84;51.19;100053.03;7396834;19;19998;-57
2022/09/29 01:41:21;;;;;;;18.00;10.88;;;;;;;9.81;51.30;100054.50;7395221;19;20005;-57
2022/09/29 01:43:57;;;;;;;18.58;10.20;;;;;;;9.84;50.73;100058.47;7396632;19;20005;-57
2022/09/29 01:46:30;;;;;;;17.65;10.02;;;;;;;9.90;50.76;100052.38;7396648;19;20215;-57
2022/09/29 01:48:57;;;;;;;19.75;10.80;;;;;;;9.84;51.02;100047.56;7396140;19;20002;-56
2022/09/29 01:51:29;;;;;;;15.98;9.48;;;;;;;9.92;50.73;100055.53;7395224;19;19995;-57
2022/09/29 01:54:00;;;;;;;18.88;10.80;;;;;;;9.84;50.92;100042.91;7393773;19;20006;-56
2022/09/29 01:56:37;;;;;;;18.63;10.27;;;;;;;9.75;51.07;100048.53;7394342;19;20016;-56
2022/09/29 01:59:12;;;;;;;17.25;9.70;;;;;;;9.89;50.68;100039.91;7397699;19;20002;-57
2022/09/29 02:01:42;;;;;;;17.17;10.20;;;;;;;9.85;50.59;100040.94;7393359;19;20007;-57
2022/09/29 02:04:15;;;;;;;16.85;10.05;;;;;;;9.83;51.00;100049.47;7395053;19;20054;-57
2022/09/29 02:06:53;;;;;;;16.83;10.37;;;;;;;9.75;50.99;100045.81;7395653;19;20007;-56
2022/09/29 02:09:25;;;;;;;19.08;10.55;;;;;;;9.72;51.05;100043.00;7394105;19;20011;-56
2022/09/29 02:11:52;;;;;;;21.52;11.15;;;;;;;9.66;51.34;100045.19;7394216;19;20013;-57
2022/09/29 02:14:24;;;;;;;17.80;10.60;;;;;;;9.81;50.66;100040.88;7394039;19;19999;-57
2022/09/29 02:17:09;;;;;;;16.70;10.32;;;;;;;9.68;51.28;100045.63;7393301;19;19995;-57
2022/09/29 02:19:37;;;;;;;17.58;10.13;;;;;;;9.62;51.24;100041.63;7393830;19;20023;-57
2022/09/29 02:22:03;;;;;;;17.98;10.68;;;;;;;9.72;50.79;100043.00;7392098;19;20002;-56
2022/09/29 02:24:29;;;;;;;18.83;10.65;;;;;;;9.70;51.03;100045.28;7395420;19;20010;-57
2022/09/29 02:26:55;;;;;;;19.17;10.18;;;;;;;9.78;50.92;100039.66;7395121;19;19999;-57
2022/09/29 02:29:21;;;;;;;17.25;10.15;;;;;;;9.63;51.11;100037.72;7395714;19;20018;-56
2022/09/29 02:31:47;;;;;;;18.13;11.07;;;;;;;9.59;51.42;100043.09;7389777;19;19998;-57
2022/09/29 02:34:16;;;;;;;17.05;10.50;;;;;;;9.60;51.33;100050.13;7394640;19;19991;-57
2022/09/29 02:36:55;;;;;;;18.65;10.57;;;;;;;9.52;51.46;100050.28;7392154;19;20029;-57
2022/09/29 02:39:30;;;;;;;16.90;10.63;;;;;;;9.57;51.33;100050.81;7393941;19;19991;-56
2022/09/29 02:42:39;;;;;;;18.25;11.05;;;;;;;9.48;51.64;100049.41;7391482;19;20018;-57
2022/09/29 02:45:28;;;;;;;22.67;11.65;;;;;;;9.55;51.43;100044.13;7393136;19;19994;-57
2022/09/29 02:48:22;;;;;;;19.17;11.20;;;;;;;9.44;51.59;100046.59;7392271;19;20006;-57
2022/09/29 02:51:01;;;;;;;18.75;11.13;;;;;;;9.49;51.29;100045.53;7393354;19;19999;-57
2022/09/29 02:53:38;;;;;;;20.30;11.68;;;;;;;9.46;51.25;100055.19;7393461;19;20466;-57
2022/09/29 02:56:37;;;;;;;16.95;10.98;;;;;;;9.37;51.67;100057.31;7394759;19;20003;-57
2022/09/29 02:59:12;;;;;;;18.02;10.88;;;;;;;9.42;51.25;100057.84;7394547;19;20070;-57
2022/09/29 03:01:53;;;;;;;16.48;10.32;;;;;;;9.41;51.18;100060.91;7391845;19;20002;-57
2022/09/29 03:04:27;;;;;;;16.58;10.05;;;;;;;9.52;50.95;100063.91;7391868;19;20013;-56
2022/09/29 03:06:53;;;;;;;19.80;11.25;;;;;;;9.50;51.29;100061.53;7392002;19;20015;-57
2022/09/29 03:09:19;;;;;;;16.05;10.35;;;;;;;9.44;51.14;100060.22;7391359;19;19997;-57
2022/09/29 03:11:45;;;;;;;15.98;9.32;;;;;;;9.39;51.36;100065.94;7391367;19;20006;-57
2022/09/29 03:14:11;;;;;;;17.10;10.93;;;;;;;9.31;51.64;100059.50;7392884;19;20013;-57
2022/09/29 03:16:38;;;;;;;20.73;11.23;;;;;;;9.27;51.63;100056.69;7393232;19;20002;-57
2022/09/29 03:19:06;;;;;;;19.30;11.10;;;;;;;9.30;51.66;100057.13;7392543;19;20013;-56
2022/09/29 03:21:32;;;;;;;15.75;9.85;;;;;;;9.38;51.18;100061.59;7389604;19;20009;-57
2022/09/29 03:23:58;;;;;;;17.42;10.20;;;;;;;9.36;51.17;100069.34;7392774;19;19998;-56
2022/09/29 03:26:24;;;;;;;19.45;10.93;;;;;;;9.37;51.30;100071.72;7393655;19;20019;-57
2022/09/29 03:28:50;;;;;;;17.83;11.20;;;;;;;9.45;51.22;100069.97;7392739;19;20034;-57
2022/09/29 03:31:16;;;;;;;18.08;10.63;;;;;;;9.37;51.44;100070.94;7389757;19;20073;-57
2022/09/29 03:33:42;;;;;;;18.65;11.10;;;;;;;9.47;51.04;100075.84;7393129;19;20443;-57
2022/09/29 03:36:10;;;;;;;18.08;10.65;;;;;;;9.34;51.36;100072.41;7393123;19;20584;-57
2022/09/29 03:38:36;;;;;;;16.98;10.32;;;;;;;9.44;50.91;100073.84;7392519;19;20002;-56
2022/09/29 03:41:01;;;;;;;18.23;10.27;;;;;;;9.24;51.28;100073.72;7390829;19;20034;-56
2022/09/29 03:43:27;;;;;;;15.85;10.13;;;;;;;9.16;51.66;100073.91;7390734;19;20001;-57
2022/09/29 03:45:54;;;;;;;16.77;10.73;;;;;;;9.22;51.52;100073.28;7391986;19;19991;-57
2022/09/29 03:48:21;;;;;;;18.20;11.00;;;;;;;9.36;51.24;100072.06;7392073;19;20023;-57
2022/09/29 03:50:48;;;;;;;17.55;10.48;;;;;;;9.31;51.23;100072.34;7390647;19;20002;-57
2022/09/29 03:53:14;;;;;;;15.50;9.73;;;;;;;9.26;51.32;100082.31;7390369;19;20040;-57
2022/09/29 03:55:40;;;;;;;18.30;11.10;;;;;;;9.40;51.19;100072.94;7390701;19;19998;-57
2022/09/29 03:58:06;;;;;;;17.67;10.15;;;;;;;9.39;51.12;100076.81;7392704;19;20329;-57
2022/09/29 04:00:32;;;;;;;18.85;11.68;;;;;;;9.25;51.22;100078.03;7364873;19;20454;-56
2022/09/29 04:02:57;;;;;;;16.10;10.65;;;;;;;9.12;51.46;100079.25;7389195;19;20074;-56
2022/09/29 04:05:23;;;;;;;18.48;10.20;;;;;;;9.23;51.57;100083.06;7392550;19;20006;-56
2022/09/29 04:07:49;;;;;;;17.95;10.63;;;;;;;9.25;51.35;100088.94;7390175;19;20009;-57
2022/09/29 04:10:14;;;;;;;18.67;10.80;;;;;;;9.30;51.34;100089.81;7386854;19;20003;-56
2022/09/29 04:12:40;;;;;;;19.73;10.95;;;;;;;9.19;51.68;100087.59;7388801;19;19991;-56
2022/09/29 04:15:06;;;;;;;15.77;10.32;;;;;;;9.24;51.59;100092.00;7391340;19;20422;-56
2022/09/29 04:17:31;;;;;;;17.73;10.50;;;;;;;9.30;51.11;100092.53;7388392;19;20105;-56
2022/09/29 04:19:57;;;;;;;19.48;10.23;;;;;;;9.30;51.25;100092.53;7388399;19;20022;-56
2022/09/29 04:22:22;;;;;;;16.75;10.75;;;;;;;9.35;51.26;100089.53;7387181;19;20017;-57
2022/09/29 04:24:48;;;;;;;17.33;10.18;;;;;;;9.33;51.35;100087.16;7390350;19;20106;-56
2022/09/29 04:27:14;;;;;;;17.63;10.85;;;;;;;9.33;51.11;100092.63;7392581;19;20470;-56
2022/09/29 04:29:40;;;;;;;18.98;11.45;;;;;;;9.24;51.55;100097.44;7394737;19;19998;-56
2022/09/29 04:32:06;;;;;;;23.00;11.15;;;;;;;9.25;51.40;100097.09;7392290;19;20010;-57
2022/09/29 04:34:32;;;;;;;19.70;11.18;;;;;;;9.09;51.78;100104.44;7394263;19;20086;-57
2022/09/29 04:36:57;;;;;;;18.00;10.50;;;;;;;9.11;51.92;100107.59;7395218;19;20334;-57
2022/09/29 04:39:23;;;;;;;18.00;10.65;;;;;;;9.23;51.41;100106.75;7391616;19;20003;-57
2022/09/29 04:41:48;;;;;;;16.08;10.13;;;;;;;9.09;51.90;100107.16;7391781;19;20006;-56
2022/09/29 04:44:14;;;;;;;18.08;10.75;;;;;;;8.98;51.91;100106.88;7393208;19;20101;-57
2022/09/29 04:46:39;;;;;;;19.15;11.23;;;;;;;8.97;52.10;100099.06;7394774;19;19998;-57
2022/09/29 04:49:05;;;;;;;18.88;11.05;;;;;;;9.01;52.03;100094.50;7393977;19;20003;-57
2022/09/29 04:51:31;;;;;;;16.42;11.27;;;;;;;9.11;51.63;100104.09;7389512;19;20466;-57
2022/09/29 04:53:57;;;;;;;15.95;10.63;;;;;;;9.14;51.54;100098.75;7394415;19;20461;-57
2022/09/29 04:56:23;;;;;;;18.65;11.60;;;;;;;9.17;51.68;100100.78;7391555;19;20129;-57
2022/09/29 04:58:48;;;;;;;17.92;11.73;;;;;;;9.15;51.57;100104.97;7393376;19;20006;-57
2022/09/29 05:01:14;;;;;;;19.05;11.05;;;;;;;9.08;51.78;100105.56;7392217;19;20071;-57
2022/09/29 05:03:40;;;;;;;19.08;10.82;;;;;;;8.97;51.82;100104.50;7393928;19;20002;-56
2022/09/29 05:06:08;;;;;;;20.80;10.98;;;;;;;9.00;51.78;100109.25;7391032;19;19995;-56
2022/09/29 05:08:34;;;;;;;16.55;10.77;;;;;;;9.06;51.78;100102.41;7388330;19;20023;-56
2022/09/29 05:11:06;;;;;;;19.77;11.18;;;;;;;9.08;51.47;100106.38;7386419;19;20291;-56
2022/09/29 05:13:31;;;;;;;20.35;11.63;;;;;;;8.99;51.92;100103.00;7389204;19;19998;-56
2022/09/29 05:15:57;;;;;;;18.48;11.18;;;;;;;9.06;51.76;100105.91;7388931;19;19994;-57
2022/09/29 05:18:24;;;;;;;18.10;11.45;;;;;;;9.16;51.50;100112.00;7386725;19;20012;-56
2022/09/29 05:20:49;;;;;;;20.90;12.55;;;;;;;8.92;51.85;100113.72;7389209;19;20346;-56
2022/09/29 05:23:15;;;;;;;19.95;11.13;;;;;;;8.87;52.10;100116.69;7394978;19;19999;-56
2022/09/29 05:25:40;;;;;;;19.02;11.73;;;;;;;8.92;52.01;100123.81;7395495;19;20010;-57
2022/09/29 05:28:06;;;;;;;18.17;11.18;;;;;;;9.13;51.60;100129.03;7395490;19;20447;-57
2022/09/29 05:30:32;;;;;;;25.05;11.70;;;;;;;9.11;51.46;100123.94;7393611;19;20553;-56
2022/09/29 05:32:57;;;;;;;18.80;11.82;;;;;;;9.16;51.77;100128.34;7396033;19;20003;-56
2022/09/29 05:35:23;;;;;;;17.65;11.93;;;;;;;9.11;51.57;100126.66;7397573;19;20006;-56
2022/09/29 05:37:50;;;;;;;18.50;12.55;;;;;;;9.17;51.22;100129.94;7394574;19;20013;-56
2022/09/29 05:40:16;;;;;;;19.70;11.93;;;;;;;9.22;50.96;100127.75;7393164;19;20463;-57
2022/09/29 05:42:41;;;;;;;21.77;12.80;;;;;;;9.26;51.01;100127.84;7395379;19;19994;-57
2022/09/29 05:45:09;;;;;;;18.35;11.85;;;;;;;9.15;51.36;100130.28;7396682;19;20022;-57
2022/09/29 05:47:35;;;;;;;19.02;12.18;;;;;;;9.01;51.82;100132.59;7394752;19;20017;-56
2022/09/29 05:50:02;;;;;;;21.17;13.25;;;;;;;9.07;51.71;100140.19;7395178;19;20007;-56
2022/09/29 05:52:28;;;;;;;23.05;13.98;;;;;;;9.11;51.77;100143.00;7395142;19;20585;-57
2022/09/29 05:54:53;;;;;;;22.70;13.90;;;;;;;9.21;51.61;100147.94;7393299;19;19995;-56
2022/09/29 05:57:25;;;;;;;25.00;13.65;;;;;;;9.23;51.63;100142.16;7394247;19;19999;-57
2022/09/29 05:59:51;;;;;;;25.98;14.98;;;;;;;9.32;51.32;100142.78;7391946;19;20478;-57
2022/09/29 06:02:17;;;;;;;24.20;14.57;;;;;;;9.34;51.11;100145.16;7392454;19;20003;-57
2022/09/29 06:04:43;;;;;;;31.90;16.00;;;;;;;9.34;51.05;100143.22;7393517;19;20354;-56
2022/09/29 06:07:08;;;;;;;26.40;15.25;;;;;;;9.35;51.17;100152.19;7393435;19;20001;-57
2022/09/29 06:09:35;;;;;;;25.13;15.10;;;;;;;9.30;51.53;100152.44;7392933;19;19991;-57
2022/09/29 06:12:01;;;;;;;34.20;15.68;;;;;;;9.32;51.15;100152.91;7391097;19;20513;-57
2022/09/29 06:14:27;;;;;;;27.13;14.93;;;;;;;9.24;51.40;100160.88;7395064;19;20454;-56
2022/09/29 06:16:52;;;;;;;26.85;15.02;;;;;;;9.16;51.67;100159.09;7394722;19;20018;-57
2022/09/29 06:19:18;;;;;;;25.15;14.50;;;;;;;9.37;51.28;100160.81;7395339;19;20011;-56
2022/09/29 06:21:44;;;;;;;30.00;14.52;;;;;;;9.34;51.12;100166.97;7391870;19;20461;-57
2022/09/29 06:24:10;;;;;;;26.88;14.93;;;;;;;9.29;51.42;100157.09;7395517;19;20002;-56
2022/09/29 06:26:36;;;;;;;25.30;14.25;;;;;;;9.46;51.18;100161.44;7394782;19;20001;-57
2022/09/29 06:29:02;;;;;;;28.52;15.10;;;;;;;9.32;51.38;100163.78;7395240;19;20050;-57
2022/09/29 06:31:29;;;;;;;28.85;14.80;;;;;;;9.33;51.43;100166.16;7390294;19;20511;-57
2022/09/29 06:34:00;;;;;;;26.40;15.10;;;;;;;9.38;51.30;100165.91;7390764;19;20009;-56
2022/09/29 06:39:24;;;;;;;29.23;14.52;;;;;;;9.43;51.26;100170.31;7393492;19;20481;-62
2022/09/29 06:41:54;;;;;;;26.08;14.00;;;;;;;9.39;51.62;100163.97;7392344;19;19995;-57
2022/09/29 06:44:25;;;;;;;26.52;13.82;;;;;;;9.47;51.06;100165.75;7395133;19;20022;-56
2022/09/29 06:46:51;;;;;;;24.38;13.98;;;;;;;9.51;51.11;100163.91;7394202;19;20069;-56
2022/09/29 06:49:18;;;;;;;23.40;13.68;;;;;;;9.58;51.10;100166.84;7395384;19;19999;-57
2022/09/29 06:51:44;;;;;;;25.73;13.10;;;;;;;9.72;51.12;100166.44;7393019;19;20007;-56
2022/09/29 06:54:20;;;;;;;23.17;13.02;;;;;;;9.48;51.51;100174.72;7393877;19;20466;-56
2022/09/29 06:56:47;;;;;;;23.75;12.93;;;;;;;9.53;51.44;100172.50;7394117;19;20344;-56
2022/09/29 06:59:13;;;;;;;27.30;12.93;;;;;;;9.65;51.10;100177.16;7395977;19;20334;-56
2022/09/29 07:01:38;;;;;;;24.42;14.32;;;;;;;9.62;51.19;100180.56;7392015;19;20012;-56
2022/09/29 07:04:04;;;;;;;24.67;13.23;;;;;;;9.70;51.21;100176.91;7393196;19;20334;-56
2022/09/29 07:06:29;;;;;;;24.05;14.20;;;;;;;9.81;50.93;100179.88;7394456;19;20021;-56
2022/09/29 07:08:57;;;;;;;25.75;14.90;;;;;;;9.89;50.71;100187.09;7391923;19;19998;-56
2022/09/29 07:11:22;;;;;;;23.65;13.93;;;;;;;9.87;50.75;100183.94;7390301;19;20026;-56
2022/09/29 07:13:49;;;;;;;31.67;15.68;;;;;;;9.85;50.65;100180.78;7393102;19;19995;-56
2022/09/29 07:16:15;;;;;;;23.67;13.73;;;;;;;9.74;51.14;100182.44;7391862;19;19991;-56
2022/09/29 07:18:42;;;;;;;26.02;14.25;;;;;;;9.71;51.18;100189.34;7390012;19;20062;-56
2022/09/29 07:21:16;;;;;;;25.85;14.50;;;;;;;9.71;51.09;100194.03;7392367;19;20010;-56
2022/09/29 07:23:42;;;;;;;30.20;15.02;;;;;;;9.85;50.95;100197.13;7391247;19;20010;-57
2022/09/29 07:26:08;;;;;;;23.08;13.90;;;;;;;9.90;50.83;100205.03;7392244;19;20712;-56
2022/09/29 07:28:35;;;;;;;25.90;14.18;;;;;;;9.85;51.12;100207.22;7393693;19;20009;-56
2022/09/29 07:31:06;;;;;;;25.98;15.00;;;;;;;9.92;51.00;100201.97;7390797;19;20344;-56
2022/09/29 07:33:32;;;;;;;32.88;16.33;;;;;;;9.98;50.75;100204.09;7393837;19;20002;-56
2022/09/29 07:35:59;;;;;;;26.58;15.18;;;;;;;9.98;51.08;100206.81;7392686;19;20049;-56
2022/09/29 07:38:29;;;;;;;33.97;17.30;;;;;;;9.85;51.34;100216.22;7391839;19;19995;-56
2022/09/29 07:41:00;;;;;;;25.83;14.77;;;;;;;9.86;51.55;100203.38;7390961;19;19998;-56
2022/09/29 07:43:26;;;;;;;30.77;16.95;;;;;;;10.10;51.13;100216.03;7391028;19;20006;-57
2022/09/29 07:45:51;;;;;;;31.20;17.17;;;;;;;10.06;51.39;100212.44;7392103;19;19994;-56
2022/09/29 07:48:17;;;;;;;32.95;16.88;;;;;;;10.21;51.26;100217.06;7392075;19;20006;-56
2022/09/29 07:50:44;;;;;;;31.63;17.50;;;;;;;10.29;51.06;100209.88;7390562;19;20002;-56
2022/09/29 07:53:10;;;;;;;31.02;18.83;;;;;;;10.40;50.86;100218.28;7391813;19;20011;-56
2022/09/29 07:55:36;;;;;;;31.08;17.73;;;;;;;10.41;51.10;100222.63;7392329;19;20026;-56
2022/09/29 07:58:02;;;;;;;32.75;18.98;;;;;;;10.38;51.23;100218.63;7392370;19;20327;-56
2022/09/29 08:00:31;;;;;;;32.42;17.48;;;;;;;10.45;51.37;100228.94;7389078;19;20017;-56
2022/09/29 08:03:02;;;;;;;33.88;19.05;;;;;;;10.46;51.29;100225.84;7390073;19;20002;-56
2022/09/29 08:05:32;;;;;;;33.75;18.58;;;;;;;10.50;51.27;100229.47;7391703;19;19998;-57
2022/09/29 08:07:59;;;;;;;35.65;19.70;;;;;;;10.60;51.40;100232.78;7392143;19;20010;-56
2022/09/29 08:10:45;;;;;;;42.72;22.17;;;;;;;10.69;51.34;100228.72;7390757;19;20010;-58
2022/09/29 08:13:31;;;;;;;37.65;21.33;;;;;;;10.62;51.21;100239.47;7386493;19;20032;-57
2022/09/29 08:16:00;;;;;;;40.22;21.75;;;;;;;10.64;51.44;100248.09;7394610;19;20022;-58
2022/09/29 08:18:27;;;;;;;41.70;21.77;;;;;;;10.72;51.04;100241.66;7391321;19;20062;-58
2022/09/29 08:20:55;;;;;;;39.83;22.63;;;;;;;10.84;51.01;100245.44;7390063;19;20042;-58
2022/09/29 08:23:22;;;;;;;38.78;21.05;;;;;;;10.91;50.94;100248.34;7392366;19;19998;-57
2022/09/29 08:25:48;;;;;;;46.35;24.75;;;;;;;11.01;50.81;100245.03;7390879;19;19995;-57
2022/09/29 08:28:13;;;;;;;41.05;24.83;;;;;;;11.04;50.81;100249.00;7390974;19;20006;-57
2022/09/29 08:30:39;;;;;;;44.65;25.58;;;;;;;11.00;50.96;100257.09;7393933;19;20006;-57
2022/09/29 08:33:13;;;;;;;45.13;24.13;;;;;;;11.18;50.80;100253.97;7389819;19;20095;-56
2022/09/29 08:35:40;;;;;;;45.42;24.85;;;;;;;11.35;50.26;100252.75;7390327;19;20017;-57
2022/09/29 08:38:05;;;;;;;44.05;24.90;;;;;;;11.28;50.82;100264.31;7390421;19;20019;-58
2022/09/29 08:40:31;;;;;;;43.58;25.33;;;;;;;11.41;50.58;100263.03;7387940;19;20006;-57
2022/09/29 08:43:29;;;;;;;44.08;24.63;;;;;;;11.48;50.53;100263.16;7390388;19;20022;-56
2022/09/29 08:46:04;;;;;;;43.35;24.10;;;;;;;11.62;50.12;100267.31;7389072;19;19990;-58
2022/09/29 08:48:39;;;;;;;41.83;24.77;;;;;;;11.70;49.97;100268.25;7391380;19;20010;-58
2022/09/29 08:51:10;;;;;;;40.10;23.67;;;;;;;11.71;49.71;100270.63;7389251;19;20026;-58
2022/09/29 08:53:43;;;;;;;41.13;23.63;;;;;;;11.75;50.20;100274.22;7390183;19;20019;-57
2022/09/29 08:56:14;;;;;;;43.42;25.27;;;;;;;11.79;49.89;100277.00;7392814;19;19998;-57
2022/09/29 08:58:39;;;;;;;44.75;24.85;;;;;;;11.75;49.99;100266.00;7396863;19;20505;-57
2022/09/29 09:01:11;;;;;;;45.45;26.45;;;;;;;11.72;50.24;100266.72;7395833;19;20005;-58
2022/09/29 09:04:04;;;;;;;46.80;24.70;;;;;;;11.85;50.49;100261.91;7395727;19;20021;-56
2022/09/29 09:06:54;;;;;;;42.95;25.52;;;;;;;11.91;50.37;100268.69;7397324;19;20327;-57
2022/09/29 09:09:52;;;;;;;39.45;23.98;;;;;;;11.82;50.60;100273.56;7397464;19;20003;-58
2022/09/29 09:12:29;;;;;;;37.65;23.48;;;;;;;11.77;50.56;100271.94;7393539;19;20006;-58
2022/09/29 09:15:37;;;;;;;38.03;23.58;;;;;;;11.79;50.46;100275.09;7394700;19;20498;-57
2022/09/29 09:18:11;;;;;;;39.45;24.25;;;;;;;11.90;50.31;100283.50;7397250;19;20010;-58
2022/09/29 09:20:58;;;;;;;38.47;24.00;;;;;;;11.92;50.61;100283.13;7393349;19;20504;-57
2022/09/29 09:23:55;;;;;;;41.50;24.45;;;;;;;11.98;50.54;100277.00;7396522;19;19999;-58
2022/09/29 09:26:30;;;;;;;39.28;24.58;;;;;;;12.09;50.55;100279.13;7397344;19;19998;-58
2022/09/29 09:29:04;;;;;;;38.85;24.20;;;;;;;12.14;50.08;100276.91;7397482;19;19998;-57
2022/09/29 09:31:42;;;;;;;41.63;25.30;;;;;;;12.22;50.20;100281.34;7394897;19;20011;-58
2022/09/29 09:34:23;;;;;;;40.25;25.67;;;;;;;12.29;50.38;100285.34;7396646;19;20017;-54
2022/09/29 09:36:57;;;;;;;40.60;25.52;;;;;;;12.40;50.07;100283.56;7396397;19;20008;-56
2022/09/29 09:39:33;;;;;;;38.45;24.55;;;;;;;12.55;49.76;100282.63;7396167;19;20007;-56
2022/09/29 09:42:02;;;;;;;36.58;23.60;;;;;;;12.66;49.69;100273.78;7394970;19;20017;-58
2022/09/29 09:44:41;;;;;;;39.97;23.88;;;;;;;12.87;49.33;100284.31;7395804;19;19998;-57
2022/09/29 09:47:27;;;;;;;37.20;23.13;;;;;;;13.06;49.42;100275.16;7392971;19;20021;-58
2022/09/29 09:49:59;;;;;;;37.90;24.20;;;;;;;13.14;49.26;100276.84;7393679;19;20006;-57
2022/09/29 09:52:50;;;;;;;36.13;23.65;;;;;;;13.21;49.23;100281.63;7392353;19;20514;-57
2022/09/29 09:55:23;;;;;;;36.78;24.60;;;;;;;13.23;49.06;100280.13;7393855;19;19999;-58
2022/09/29 09:58:07;;;;;;;38.05;24.88;;;;;;;13.37;48.94;100284.19;7395729;19;20011;-58
2022/09/29 10:00:47;;;;;;;;;;;;;;;13.38;49.05;100285.78;7393839;19;20217;-61
2022/09/29 10:03:15;;;;;;;34.55;23.17;;;;;;;13.43;48.80;100291.72;7395216;19;19949;-59
2022/09/29 10:05:44;;;;;;;37.90;24.80;;;;;;;13.62;48.51;100285.25;7393216;19;20014;-59
2022/09/29 10:08:31;;;;;;;35.38;23.85;;;;;;;13.69;48.51;100290.84;7396106;19;20005;-57
2022/09/29 10:10:58;;;;;;;34.63;23.20;;;;;;;13.66;48.54;100280.63;7393322;19;19995;-57
2022/09/29 10:13:29;;;;;;;30.55;20.55;;;;;;;13.68;48.50;100293.97;7395137;19;20014;-57
2022/09/29 10:16:00;;;;;;;34.38;20.75;;;;;;;13.71;48.49;100290.47;7395626;19;20002;-58
2022/09/29 10:18:37;;;;;;;31.38;20.02;;;;;;;13.59;48.68;100291.50;7395021;19;20002;-59
2022/09/29 10:21:03;;;;;;;27.80;17.92;;;;;;;13.58;48.83;100280.94;7396854;19;20447;-59
2022/09/29 10:23:37;;;;;;;27.35;16.35;;;;;;;13.56;48.65;100294.19;7395645;19;20007;-58
2022/09/29 10:26:05;;;;;;;;;;;;;;;13.51;48.27;100290.63;7395874;19;20067;-58
2022/09/29 10:28:48;;;;;;;22.88;13.82;;;;;;;13.61;48.24;100289.19;7395535;19;19915;-58
2022/09/29 10:31:35;;;;;;;23.08;13.90;;;;;;;13.66;48.57;100291.59;7392888;19;20030;-59
2022/09/29 10:34:16;;;;;;;20.92;13.10;;;;;;;13.78;48.28;100287.03;7393015;19;20025;-58
2022/09/29 10:37:00;;;;;;;19.08;13.13;;;;;;;13.80;48.38;100288.22;7392588;19;20003;-58
2022/09/29 10:39:41;;;;;;;24.10;13.55;;;;;;;13.88;47.58;100287.16;7393227;19;20529;-58
2022/09/29 10:42:26;;;;;;;20.48;13.00;;;;;;;13.76;48.15;100294.81;7391723;19;20022;-59
2022/09/29 10:45:00;;;;;;;17.08;10.70;;;;;;;13.84;47.75;100286.34;7394150;19;20013;-58
2022/09/29 10:47:25;;;;;;;18.90;10.65;;;;;;;13.88;47.61;100295.38;7394390;19;20028;-58
2022/09/29 10:50:30;;;;;;;17.60;11.20;;;;;;;13.97;47.22;100291.53;7393165;19;20002;-59
2022/09/29 10:52:58;;;;;;;20.42;11.85;;;;;;;14.04;47.41;100295.16;7389510;19;20002;-58
2022/09/29 10:55:27;;;;;;;18.88;10.73;;;;;;;13.99;47.22;100292.72;7392018;19;20031;-59
2022/09/29 10:57:55;;;;;;;17.30;10.52;;;;;;;14.06;47.16;100294.75;7393629;19;20578;-58
2022/09/29 11:00:26;;;;;;;16.65;10.45;;;;;;;13.95;47.09;100297.41;7391344;19;20013;-58
2022/09/29 11:02:58;;;;;;;17.48;10.27;;;;;;;14.03;47.03;100301.78;7393319;19;20003;-58
2022/09/29 11:05:23;;;;;;;15.70;9.00;;;;;;;14.07;46.85;100299.09;7391613;19;20474;-59
2022/09/29 11:07:51;;;;;;;16.52;9.48;;;;;;;14.06;46.76;100301.03;7393998;19;20006;-59
2022/09/29 11:10:35;;;;;;;13.43;8.00;;;;;;;14.04;47.17;100302.56;7393376;19;20009;-58
2022/09/29 11:13:19;;;;;;;15.95;8.38;;;;;;;14.09;46.10;100295.97;7391067;19;20006;-58
2022/09/29 11:15:44;;;;;;;18.55;9.20;;;;;;;14.18;46.33;100302.72;7393758;19;20005;-57
2022/09/29 11:18:34;;;;;;;17.98;9.57;;;;;;;14.36;46.31;100294.66;7392267;19;20454;-58
2022/09/29 11:21:21;;;;;;;14.85;7.93;;;;;;;14.29;46.21;100305.56;7392874;19;20003;-59
2022/09/29 11:24:10;;;;;;;15.68;8.43;;;;;;;14.30;45.97;100304.41;7393601;19;20003;-59
2022/09/29 11:26:54;;;;;;;12.85;7.30;;;;;;;14.36;46.14;100308.38;7392549;19;20007;-59
2022/09/29 11:29:38;;;;;;;;;;;;;;;14.37;45.32;100318.19;7392414;19;20037;-58
2022/09/29 11:32:10;;;;;;;16.95;6.60;;;;;;;14.53;45.67;100312.44;7390461;19;19951;-57
2022/09/29 11:34:58;;;;;;;12.95;7.00;;;;;;;14.54;45.56;100313.22;7391340;19;20009;-58
2022/09/29 11:37:45;;;;;;;11.77;5.22;;;;;;;14.61;45.19;100307.78;7390593;19;20016;-58
2022/09/29 11:40:14;;;;;;;9.00;4.28;;;;;;;14.68;44.88;100313.34;7389424;19;20002;-58